createdAt,value
2022-10-19T00:00:05.284Z,11.65
2022-10-19T00:03:07.760Z,11.59
2022-10-19T00:06:19.768Z,11.80
2022-10-19T00:09:22.677Z,11.80
2022-10-19T00:12:25.674Z,11.77
2022-10-19T00:15:28.182Z,11.55
2022-10-19T00:18:31.034Z,11.38
2022-10-19T00:21:33.886Z,11.41
2022-10-19T00:24:36.800Z,11.43
2022-10-19T00:27:39.600Z,11.31
2022-10-19T00:30:42.753Z,11.30
2022-10-19T00:33:46.930Z,11.13
2022-10-19T00:36:50.176Z,11.10
2022-10-19T00:39:52.740Z,11.04
2022-10-19T00:42:56.392Z,11.09
2022-10-19T00:45:58.809Z,11.09
2022-10-19T00:49:25.722Z,11.07
2022-10-19T00:52:28.999Z,11.12
2022-10-19T00:55:32.655Z,11.07
2022-10-19T00:58:36.105Z,10.98
2022-10-19T01:01:38.972Z,10.89
2022-10-19T01:04:48.102Z,10.86
2022-10-19T01:07:51.050Z,10.87
2022-10-19T01:11:14.282Z,10.69
2022-10-19T01:14:19.816Z,10.73
2022-10-19T01:17:25.391Z,10.71
2022-10-19T01:20:38.751Z,10.77
2022-10-19T01:24:06.381Z,10.85
2022-10-19T01:27:21.264Z,10.98
2022-10-19T01:30:52.890Z,10.79
2022-10-19T01:34:44.184Z,10.80
2022-10-19T01:38:34.595Z,10.89
2022-10-19T01:41:54.891Z,10.96
2022-10-19T01:45:13.957Z,10.55
2022-10-19T01:48:32.266Z,10.58
2022-10-19T01:51:40.443Z,10.54
2022-10-19T01:54:47.807Z,10.45
2022-10-19T01:58:08.313Z,10.56
2022-10-19T02:01:15.017Z,10.57
2022-10-19T02:04:21.189Z,10.69
2022-10-19T02:07:25.337Z,10.76
2022-10-19T02:10:29.931Z,10.79
2022-10-19T02:13:33.678Z,10.63
2022-10-19T02:17:02.273Z,10.65
2022-10-19T02:20:05.730Z,10.54
2022-10-19T02:23:08.694Z,10.58
2022-10-19T02:26:11.706Z,10.80
2022-10-19T02:29:15.292Z,10.92
2022-10-19T02:32:18.258Z,10.92
2022-10-19T02:35:20.807Z,10.90
2022-10-19T02:38:25.380Z,11.02
2022-10-19T02:41:36.559Z,11.24
2022-10-19T02:44:45.063Z,11.31
2022-10-19T02:47:54.043Z,11.50
2022-10-19T02:50:57.238Z,11.48
2022-10-19T02:54:02.718Z,11.40
2022-10-19T02:57:25.315Z,11.47
2022-10-19T03:00:27.766Z,11.27
2022-10-19T03:03:30.566Z,11.37
2022-10-19T03:06:33.245Z,11.44
2022-10-19T03:09:36.045Z,11.62
2022-10-19T03:12:38.636Z,11.84
2022-10-19T03:15:41.404Z,11.93
2022-10-19T03:18:44.341Z,12.04
2022-10-19T03:24:49.779Z,12.25
2022-10-19T03:27:52.578Z,12.03
2022-10-19T03:30:55.426Z,12.03
2022-10-19T03:33:58.190Z,11.94
2022-10-19T03:37:00.688Z,11.70
2022-10-19T03:40:03.848Z,12.02
2022-10-19T03:43:06.454Z,12.10
2022-10-19T03:46:09.580Z,12.09
2022-10-19T03:49:12.494Z,12.11
2022-10-19T03:52:15.298Z,12.17
2022-10-19T03:55:18.012Z,12.08
2022-10-19T03:58:21.354Z,12.15
2022-10-19T04:01:29.897Z,12.09
2022-10-19T04:04:32.942Z,12.15
2022-10-19T04:07:35.531Z,12.09
2022-10-19T04:10:39.052Z,12.00
2022-10-19T04:13:41.751Z,12.04
2022-10-19T04:16:44.501Z,12.01
2022-10-19T04:19:47.032Z,12.12
2022-10-19T04:22:54.082Z,11.86
2022-10-19T04:26:06.205Z,11.89
2022-10-19T04:29:10.094Z,11.80
2022-10-19T04:32:12.644Z,11.73
2022-10-19T04:35:15.531Z,11.70
2022-10-19T04:38:18.137Z,11.61
2022-10-19T04:41:22.108Z,11.64
2022-10-19T04:47:29.720Z,11.60
2022-10-19T04:50:32.964Z,11.58
2022-10-19T04:53:37.809Z,11.50
2022-10-19T04:56:40.321Z,11.48
2022-10-19T04:59:43.167Z,11.33
2022-10-19T05:02:46.344Z,11.50
2022-10-19T05:05:49.134Z,11.50
2022-10-19T05:08:52.419Z,12.02
2022-10-19T05:11:55.148Z,12.36
2022-10-19T05:14:57.594Z,12.30
2022-10-19T05:18:01.033Z,12.27
2022-10-19T05:21:14.321Z,12.17
2022-10-19T05:24:17.106Z,12.06
2022-10-19T05:27:19.614Z,11.84
2022-10-19T05:30:22.934Z,11.63
2022-10-19T05:33:25.497Z,11.70
2022-10-19T05:36:37.141Z,12.32
2022-10-19T05:39:39.769Z,13.07
2022-10-19T05:42:42.554Z,13.55
2022-10-19T05:45:46.280Z,13.88
2022-10-19T05:48:49.490Z,14.37
2022-10-19T05:51:52.259Z,14.29
2022-10-19T05:54:55.757Z,14.64
2022-10-19T05:57:58.290Z,14.81
2022-10-19T06:01:02.861Z,15.16
2022-10-19T06:04:07.347Z,15.35
2022-10-19T06:07:09.940Z,15.70
2022-10-19T06:10:12.805Z,15.85
2022-10-19T06:13:18.069Z,16.14
2022-10-19T06:16:21.508Z,16.40
2022-10-19T06:19:24.024Z,16.41
2022-10-19T06:22:26.897Z,16.69
2022-10-19T06:25:30.705Z,17.11
2022-10-19T06:28:34.204Z,17.21
2022-10-19T06:31:37.260Z,17.69
2022-10-19T06:34:40.146Z,17.58
2022-10-19T06:37:43.426Z,17.79
2022-10-19T06:40:46.553Z,17.80
2022-10-19T06:43:53.181Z,17.78
2022-10-19T06:46:56.123Z,18.48
2022-10-19T06:49:58.658Z,18.00
2022-10-19T06:53:01.491Z,18.41
2022-10-19T06:56:06.288Z,18.85
2022-10-19T06:59:13.038Z,18.86
2022-10-19T07:02:16.147Z,19.11
2022-10-19T07:05:19.158Z,19.19
2022-10-19T07:08:21.653Z,19.57
2022-10-19T07:11:24.624Z,19.43
2022-10-19T07:14:30.833Z,19.73
2022-10-19T07:17:33.729Z,20.30
2022-10-19T07:20:36.448Z,19.96
2022-10-19T07:23:41.490Z,20.83
2022-10-19T07:26:43.980Z,20.15
2022-10-19T07:29:46.964Z,20.32
2022-10-19T07:32:49.771Z,21.10
2022-10-19T07:35:59.079Z,21.26
2022-10-19T07:39:05.364Z,20.99
2022-10-19T07:42:08.282Z,22.07
2022-10-19T07:45:11.109Z,22.08
2022-10-19T07:48:13.985Z,22.17
2022-10-19T07:51:21.217Z,22.15
2022-10-19T07:54:24.658Z,23.00
2022-10-19T07:57:27.373Z,22.73
2022-10-19T08:00:30.496Z,22.81
2022-10-19T08:06:57.948Z,23.68
2022-10-19T08:10:00.789Z,24.55
2022-10-19T08:13:03.354Z,24.29
2022-10-19T08:16:06.786Z,24.21
2022-10-19T08:19:12.383Z,23.92
2022-10-19T08:22:15.202Z,24.26
2022-10-19T08:25:17.818Z,24.64
2022-10-19T08:28:21.459Z,23.75
2022-10-19T08:31:24.053Z,24.22
2022-10-19T08:34:26.986Z,24.58
2022-10-19T08:37:45.886Z,24.58
2022-10-19T08:40:50.319Z,24.48
2022-10-19T08:44:20.460Z,24.39
2022-10-19T08:47:32.500Z,25.62
2022-10-19T08:50:44.656Z,25.13
2022-10-19T08:53:55.799Z,24.99
2022-10-19T08:57:36.884Z,25.66
2022-10-19T09:00:58.654Z,25.32
2022-10-19T09:04:19.605Z,25.38
2022-10-19T09:07:24.501Z,24.95
2022-10-19T09:10:35.000Z,25.22
2022-10-19T09:14:03.737Z,25.92
2022-10-19T09:17:11.991Z,25.78
2022-10-19T09:20:22.520Z,25.51
2022-10-19T09:23:40.452Z,25.33
2022-10-19T09:26:52.097Z,25.19
2022-10-19T09:29:57.455Z,24.81
2022-10-19T09:33:02.089Z,25.27
2022-10-19T09:36:07.802Z,26.05
2022-10-19T09:39:13.125Z,25.49
2022-10-19T09:42:25.720Z,24.57
2022-10-19T09:46:11.696Z,25.17
2022-10-19T09:49:38.104Z,26.23
2022-10-19T09:52:43.739Z,23.03
2022-10-19T09:55:51.411Z,24.63
2022-10-19T09:59:07.059Z,24.54
2022-10-19T10:02:20.002Z,25.40
2022-10-19T10:05:33.165Z,24.50
2022-10-19T10:08:45.155Z,25.31
2022-10-19T10:11:51.043Z,24.16
2022-10-19T10:14:55.381Z,24.95
2022-10-19T10:17:58.525Z,23.84
2022-10-19T10:21:14.537Z,22.62
2022-10-19T10:24:20.181Z,24.99
2022-10-19T10:27:53.631Z,24.23
2022-10-19T10:31:03.476Z,23.60
2022-10-19T10:34:16.484Z,22.83
2022-10-19T10:37:41.612Z,23.94
2022-10-19T10:41:00.894Z,25.40
2022-10-19T10:44:08.805Z,26.31
2022-10-19T10:47:16.728Z,25.93
2022-10-19T10:50:19.525Z,24.98
2022-10-19T10:53:40.061Z,23.64
2022-10-19T10:56:45.401Z,24.06
2022-10-19T10:59:55.141Z,24.96
2022-10-19T11:03:16.565Z,25.78
2022-10-19T11:09:42.223Z,26.10
2022-10-19T11:12:56.216Z,24.31
2022-10-19T11:16:05.029Z,25.26
2022-10-19T11:19:23.954Z,25.38
2022-10-19T11:22:28.773Z,26.07
2022-10-19T11:26:06.643Z,27.19
2022-10-19T11:29:19.554Z,26.36
2022-10-19T11:32:56.327Z,25.96
2022-10-19T11:36:04.575Z,25.01
2022-10-19T11:39:13.115Z,24.84
2022-10-19T11:42:43.673Z,24.97
2022-10-19T11:45:56.650Z,26.61
2022-10-19T11:49:25.147Z,25.89
2022-10-19T11:52:39.812Z,26.20
2022-10-19T11:55:51.794Z,25.79
2022-10-19T11:59:26.771Z,25.64
2022-10-19T12:03:24.802Z,25.58
2022-10-19T12:06:50.924Z,24.13
2022-10-19T12:10:18.019Z,24.27
2022-10-19T12:13:40.785Z,24.23
2022-10-19T12:16:49.987Z,23.65
2022-10-19T12:20:01.613Z,22.94
2022-10-19T12:23:21.439Z,22.16
2022-10-19T12:26:27.926Z,22.09
2022-10-19T12:29:36.626Z,21.82
2022-10-19T12:32:56.894Z,22.40
2022-10-19T12:36:19.603Z,21.92
2022-10-19T12:39:28.568Z,22.04
2022-10-19T12:42:30.976Z,21.57
2022-10-19T12:45:38.588Z,21.68
2022-10-19T12:48:41.616Z,21.47
2022-10-19T12:51:46.535Z,21.29
2022-10-19T12:54:49.170Z,21.35
2022-10-19T12:58:19.170Z,20.73
2022-10-19T13:01:44.022Z,20.79
2022-10-19T13:04:54.033Z,20.83
2022-10-19T13:07:57.133Z,20.99
2022-10-19T13:11:10.187Z,20.83
2022-10-19T13:14:46.974Z,20.54
2022-10-19T13:17:51.666Z,20.38
2022-10-19T13:20:54.709Z,20.49
2022-10-19T13:24:26.247Z,20.47
2022-10-19T13:27:37.205Z,20.84
2022-10-19T13:30:44.062Z,20.86
2022-10-19T13:33:48.912Z,20.81
2022-10-19T13:37:03.059Z,20.36
2022-10-19T13:40:23.632Z,20.02
2022-10-19T13:43:29.917Z,20.40
2022-10-19T13:46:32.677Z,20.61
2022-10-19T13:49:54.276Z,20.21
2022-10-19T13:53:30.221Z,19.85
2022-10-19T13:56:50.828Z,19.73
2022-10-19T14:00:17.186Z,19.69
2022-10-19T14:03:26.619Z,19.79
2022-10-19T14:06:44.405Z,19.58
2022-10-19T14:10:16.152Z,19.46
2022-10-19T14:13:22.256Z,19.42
2022-10-19T14:16:25.053Z,19.26
2022-10-19T14:19:31.490Z,18.92
2022-10-19T14:22:36.188Z,19.09
2022-10-19T14:25:38.766Z,19.01
2022-10-19T14:28:43.170Z,18.82
2022-10-19T14:31:45.928Z,18.86
2022-10-19T14:34:50.143Z,18.62
2022-10-19T14:37:53.617Z,18.46
2022-10-19T14:40:57.735Z,18.42
2022-10-19T14:44:02.842Z,18.67
2022-10-19T14:47:20.972Z,18.51
2022-10-19T14:50:57.339Z,18.13
2022-10-19T14:54:04.130Z,18.09
2022-10-19T14:57:27.897Z,17.94
2022-10-19T15:00:37.910Z,17.83
2022-10-19T15:03:44.632Z,17.99
2022-10-19T15:06:48.459Z,17.52
2022-10-19T15:09:57.884Z,17.76
2022-10-19T15:13:04.149Z,17.53
2022-10-19T15:16:27.006Z,17.39
2022-10-19T15:19:40.552Z,17.27
2022-10-19T15:22:43.278Z,17.35
2022-10-19T15:25:47.068Z,17.38
2022-10-19T15:28:50.394Z,17.32
2022-10-19T15:31:56.438Z,17.13
2022-10-19T15:34:59.421Z,16.99
2022-10-19T15:38:04.473Z,16.95
2022-10-19T15:41:06.954Z,16.81
2022-10-19T15:44:31.519Z,16.67
2022-10-19T15:47:34.223Z,16.78
2022-10-19T15:50:45.454Z,16.55
2022-10-19T15:53:48.054Z,16.32
2022-10-19T15:56:52.481Z,16.32
2022-10-19T15:59:56.985Z,16.43
2022-10-19T16:02:59.783Z,16.29
2022-10-19T16:06:02.816Z,16.09
2022-10-19T16:09:06.552Z,15.96
2022-10-19T16:12:11.319Z,16.02
2022-10-19T16:15:17.441Z,16.13
2022-10-19T16:18:20.328Z,16.11
2022-10-19T16:21:26.355Z,15.80
2022-10-19T16:24:29.113Z,15.85
2022-10-19T16:27:31.864Z,16.01
2022-10-19T16:30:35.074Z,15.76
2022-10-19T16:33:38.061Z,15.78
2022-10-19T16:36:41.016Z,15.89
2022-10-19T16:39:43.650Z,15.78
2022-10-19T16:42:46.616Z,15.64
2022-10-19T16:45:49.229Z,15.56
2022-10-19T16:48:52.938Z,15.52
2022-10-19T16:51:57.408Z,15.44
2022-10-19T16:55:01.229Z,15.40
2022-10-19T16:58:03.806Z,15.43
2022-10-19T17:01:11.399Z,15.33
2022-10-19T17:04:17.188Z,15.22
2022-10-19T17:07:20.214Z,15.17
2022-10-19T17:10:24.763Z,15.04
2022-10-19T17:13:27.725Z,15.10
2022-10-19T17:16:33.430Z,15.02
2022-10-19T17:19:37.606Z,15.02
2022-10-19T17:22:41.150Z,14.75
2022-10-19T17:25:49.073Z,14.77
2022-10-19T17:28:51.786Z,14.73
2022-10-19T17:31:54.591Z,14.71
2022-10-19T17:34:57.357Z,14.71
2022-10-19T17:38:00.487Z,14.49
2022-10-19T17:41:06.897Z,14.32
2022-10-19T17:44:10.075Z,14.51
2022-10-19T17:47:13.042Z,14.52
2022-10-19T17:50:16.318Z,14.49
2022-10-19T17:53:19.152Z,14.43
2022-10-19T17:56:23.071Z,14.17
2022-10-19T17:59:34.555Z,14.36
2022-10-19T18:02:40.364Z,14.40
2022-10-19T18:05:43.867Z,14.30
2022-10-19T18:08:49.853Z,14.25
2022-10-19T18:11:53.091Z,14.37
2022-10-19T18:14:55.926Z,14.18
2022-10-19T18:17:59.162Z,13.99
2022-10-19T18:21:07.392Z,13.80
2022-10-19T18:24:19.668Z,13.55
2022-10-19T18:27:23.270Z,13.72
2022-10-19T18:30:26.518Z,13.58
2022-10-19T18:33:32.421Z,13.45
2022-10-19T18:36:35.678Z,13.28
2022-10-19T18:39:39.370Z,13.27
2022-10-19T18:42:43.999Z,13.28
2022-10-19T18:45:54.162Z,13.10
2022-10-19T18:48:58.037Z,13.11
2022-10-19T18:52:00.975Z,13.19
2022-10-19T18:55:04.947Z,13.10
2022-10-19T18:58:08.879Z,12.99
2022-10-19T19:01:18.183Z,12.83
2022-10-19T19:04:21.157Z,12.80
2022-10-19T19:07:24.579Z,12.90
2022-10-19T19:10:28.158Z,12.83
2022-10-19T19:13:31.380Z,12.88
2022-10-19T19:16:37.962Z,12.67
2022-10-19T19:19:41.400Z,12.74
2022-10-19T19:22:44.190Z,12.58
2022-10-19T19:25:48.540Z,12.76
2022-10-19T19:28:51.899Z,12.56
2022-10-19T19:31:55.757Z,12.29
2022-10-19T19:34:58.710Z,12.46
2022-10-19T19:38:01.887Z,12.43
2022-10-19T19:41:07.717Z,12.28
2022-10-19T19:44:10.898Z,12.29
2022-10-19T19:47:13.693Z,12.28
2022-10-19T19:50:18.571Z,12.29
2022-10-19T19:53:21.767Z,12.31
2022-10-19T19:56:29.247Z,12.28
2022-10-19T19:59:32.794Z,12.15
2022-10-19T20:03:01.353Z,12.10
2022-10-19T20:06:06.177Z,12.00
2022-10-19T20:09:11.461Z,11.90
2022-10-19T20:12:16.297Z,11.86
2022-10-19T20:15:19.590Z,11.77
2022-10-19T20:18:26.160Z,11.82
2022-10-19T20:21:29.139Z,11.76
2022-10-19T20:24:37.642Z,11.68
2022-10-19T20:27:43.133Z,11.60
2022-10-19T20:31:05.144Z,11.54
2022-10-19T20:34:14.108Z,11.68
2022-10-19T20:37:19.356Z,11.57
2022-10-19T20:40:24.617Z,11.45
2022-10-19T20:43:27.778Z,11.41
2022-10-19T20:46:31.416Z,11.34
2022-10-19T20:49:34.519Z,11.41
2022-10-19T20:52:38.538Z,11.19
2022-10-19T20:55:41.434Z,11.23
2022-10-19T20:58:45.173Z,11.13
2022-10-19T21:01:53.495Z,11.13
2022-10-19T21:04:56.028Z,11.11
2022-10-19T21:07:59.047Z,10.97
2022-10-19T21:11:02.058Z,10.89
2022-10-19T21:14:11.827Z,10.84
2022-10-19T21:17:14.247Z,10.86
2022-10-19T21:20:17.830Z,10.83
2022-10-19T21:23:20.371Z,10.78
2022-10-19T21:26:26.007Z,10.72
2022-10-19T21:29:28.574Z,10.72
2022-10-19T21:32:31.455Z,10.61
2022-10-19T21:35:36.303Z,10.47
2022-10-19T21:38:39.640Z,10.39
2022-10-19T21:41:42.090Z,10.52
2022-10-19T21:44:44.940Z,10.52
2022-10-19T21:47:47.493Z,10.46
2022-10-19T21:50:54.296Z,10.39
2022-10-19T21:53:56.889Z,10.34
2022-10-19T21:57:01.539Z,10.41
2022-10-19T22:00:04.867Z,10.31
2022-10-19T22:03:18.575Z,10.28
2022-10-19T22:06:21.292Z,10.28
2022-10-19T22:09:23.915Z,10.15
2022-10-19T22:12:27.041Z,10.02
2022-10-19T22:15:29.437Z,9.92
2022-10-19T22:18:32.658Z,9.87
2022-10-19T22:21:35.647Z,9.99
2022-10-19T22:24:38.687Z,10.00
2022-10-19T22:27:41.140Z,9.99
2022-10-19T22:31:01.328Z,9.87
2022-10-19T22:34:15.773Z,9.83
2022-10-19T22:37:18.574Z,9.82
2022-10-19T22:40:25.575Z,9.71
2022-10-19T22:43:28.291Z,9.67
2022-10-19T22:46:30.823Z,9.72
2022-10-19T22:49:33.912Z,9.69
2022-10-19T22:52:36.730Z,9.69
2022-10-19T22:55:40.316Z,9.66
2022-10-19T22:58:42.953Z,9.63
2022-10-19T23:01:45.822Z,9.47
2022-10-19T23:04:48.319Z,9.48
2022-10-19T23:07:51.061Z,9.44
2022-10-19T23:10:53.871Z,9.23
2022-10-19T23:13:56.610Z,9.16
2022-10-19T23:16:59.017Z,9.15
2022-10-19T23:20:02.183Z,9.20
2022-10-19T23:23:05.564Z,9.26
2022-10-19T23:26:08.319Z,9.12
2022-10-19T23:29:10.801Z,9.08
2022-10-19T23:32:13.651Z,9.15
2022-10-19T23:35:16.255Z,9.14
2022-10-19T23:38:19.030Z,9.16
2022-10-19T23:41:22.367Z,8.98
2022-10-19T23:44:25.165Z,8.95
2022-10-19T23:47:27.880Z,8.88
2022-10-19T23:50:30.924Z,8.89
2022-10-19T23:53:38.449Z,8.80
2022-10-19T23:56:43.673Z,8.64
2022-10-19T23:59:46.622Z,8.56
